Time;durP1;ratioP1;P1;durP2;ratioP2;P2;SDS_P1;SDS_P2;PMS_P1;PMS_P2;Temp;Humidity;BMP_temperature;BMP_pressure;BME280_temperature;BME280_humidity;BME280_pressure;Samples;Min_cycle;Max_cycle;Signal;HPM_P1;HPM_P2
2021/08/04 03:10:56;;;;;;;523.80;500.20;;;10.20;99.90;;;;;;5925419;23;20483;-77
2021/08/04 03:13:23;;;;;;;537.20;512.57;;;10.10;99.90;;;;;;6097033;23;20522;-78
2021/08/04 03:15:50;;;;;;;517.07;494.77;;;10.10;99.90;;;;;;6201360;23;20416;-78
2021/08/04 03:18:17;;;;;;;522.87;499.83;;;10.00;99.90;;;;;;6216981;23;20487;-78
2021/08/04 03:20:43;;;;;;;530.37;506.77;;;10.10;99.90;;;;;;6216608;23;20891;-78
2021/08/04 03:23:11;;;;;;;529.10;506.00;;;10.20;99.90;;;;;;6216874;23;20462;-77
2021/08/04 03:25:38;;;;;;;518.00;494.77;;;10.30;99.90;;;;;;6216841;23;20812;-82
2021/08/04 03:28:06;;;;;;;519.90;497.00;;;10.30;99.90;;;;;;6227052;23;20405;-81
2021/08/04 03:57:46;;;;;;;474.77;454.57;;;9.60;99.90;;;;;;5916514;24;20419;-77
2021/08/04 04:00:14;;;;;;;482.57;460.17;;;9.60;99.90;;;;;;5999913;23;20533;-79
2021/08/04 04:02:41;;;;;;;497.70;475.80;;;9.60;99.90;;;;;;6093549;23;20449;-79
2021/08/04 04:05:09;;;;;;;482.53;460.93;;;9.60;99.90;;;;;;6164299;23;20495;-78
2021/08/04 04:07:36;;;;;;;495.97;473.87;;;9.60;99.90;;;;;;6185965;23;20885;-78
2021/08/04 04:10:04;;;;;;;486.30;464.77;;;9.70;99.90;;;;;;6195807;23;20920;-79
2021/08/04 04:12:31;;;;;;;503.07;479.53;;;9.70;99.90;;;;;;6109991;23;20989;-82
2021/08/04 04:15:00;;;;;;;504.20;480.90;;;9.80;99.90;;;;;;6186418;23;20448;-79
2021/08/04 04:17:27;;;;;;;500.17;476.57;;;9.80;99.90;;;;;;6194926;23;20756;-79
2021/08/04 04:19:53;;;;;;;499.73;476.23;;;9.90;99.90;;;;;;6185786;23;20432;-79
2021/08/04 04:22:20;;;;;;;510.10;485.53;;;10.00;99.90;;;;;;6186411;23;20408;-78
2021/08/04 05:03:20;;;;;;;562.03;535.03;;;12.00;99.90;;;;;;6192592;23;20770;-80
2021/08/04 05:19:14;;;;;;;604.43;575.67;;;12.40;99.90;;;;;;5911255;23;20499;-84
2021/08/04 05:21:41;;;;;;;607.80;579.17;;;12.40;99.90;;;;;;6065557;23;20784;-85
2021/08/04 05:24:08;;;;;;;618.33;589.50;;;12.60;99.90;;;;;;6180644;23;20437;-84
2021/08/04 05:26:35;;;;;;;635.23;605.93;;;12.60;99.90;;;;;;6215624;23;20435;-82
2021/08/04 05:29:03;;;;;;;655.73;625.73;;;12.60;99.90;;;;;;6225910;23;20468;-80
2021/08/04 05:31:29;;;;;;;651.17;621.07;;;12.70;99.90;;;;;;6214986;23;20431;-84
2021/08/04 05:33:56;;;;;;;643.80;614.23;;;12.70;99.90;;;;;;6225323;23;20411;-79
2021/08/04 05:36:25;;;;;;;646.23;617.93;;;12.80;99.90;;;;;;6215827;23;20488;-82
2021/08/04 05:38:58;;;;;;;662.30;635.10;;;12.90;99.90;;;;;;6215500;23;20960;-85
2021/08/04 05:41:27;;;;;;;704.53;675.53;;;13.00;99.90;;;;;;6218220;23;20401;-85
2021/08/04 05:44:06;;;;;;;654.97;627.97;;;13.30;99.90;;;;;;6218479;23;20482;-85
2021/08/04 05:46:33;;;;;;;521.07;501.43;;;13.70;99.90;;;;;;6224765;23;20797;-80
2021/08/04 05:49:00;;;;;;;354.43;339.67;;;13.90;99.90;;;;;;6225431;23;20433;-81
2021/08/04 05:51:28;;;;;;;248.83;237.63;;;14.20;99.90;;;;;;6215392;23;20439;-81
2021/08/04 05:54:02;;;;;;;169.23;159.63;;;14.30;99.90;;;;;;6215520;23;20826;-84
2021/08/04 05:56:44;;;;;;;97.90;90.57;;;14.30;99.90;;;;;;6226197;23;20421;-86
2021/08/04 05:59:19;;;;;;;80.43;73.80;;;14.50;99.90;;;;;;6225307;23;20473;-87
2021/08/04 06:01:56;;;;;;;75.00;68.43;;;14.50;99.50;;;;;;6214152;23;20407;-87
2021/08/04 06:04:23;;;;;;;97.40;90.50;;;14.50;97.80;;;;;;6224946;23;20440;-86
2021/08/04 06:07:02;;;;;;;160.37;151.10;;;14.40;97.80;;;;;;6225870;23;20954;-87
2021/08/04 06:09:30;;;;;;;251.60;239.70;;;14.40;98.60;;;;;;6226303;23;20420;-91
2021/08/04 06:11:57;;;;;;;366.27;352.10;;;14.30;99.40;;;;;;6226779;23;20442;-86
2021/08/04 06:14:28;;;;;;;462.57;446.13;;;14.40;99.90;;;;;;6226233;23;20497;-84
2021/08/04 06:16:55;;;;;;;540.63;522.30;;;14.40;99.90;;;;;;6214454;23;20415;-85
2021/08/04 06:19:23;;;;;;;583.67;564.03;;;14.50;99.90;;;;;;6215723;23;20408;-87
2021/08/04 06:21:50;;;;;;;412.53;397.43;;;14.70;99.90;;;;;;6215600;23;20463;-88
2021/08/04 06:24:18;;;;;;;366.60;352.47;;;14.70;99.60;;;;;;6226041;23;20410;-87
2021/08/04 06:26:49;;;;;;;334.40;320.87;;;14.80;98.70;;;;;;6215427;23;20449;-87
2021/08/04 06:29:20;;;;;;;329.47;316.27;;;15.00;97.90;;;;;;6225057;23;20431;-86
2021/08/04 06:31:47;;;;;;;336.80;322.50;;;15.10;98.20;;;;;;6223579;23;20521;-87
2021/08/04 06:34:14;;;;;;;198.87;188.80;;;15.20;98.30;;;;;;6225279;23;20419;-86
2021/08/04 06:36:41;;;;;;;78.50;71.77;;;15.50;97.90;;;;;;6225881;23;20407;-87
2021/08/04 06:39:08;;;;;;;54.63;48.80;;;15.60;91.70;;;;;;6217250;23;20454;-87
2021/08/04 06:41:36;;;;;;;51.20;28.77;;;15.70;91.50;;;;;;6227192;23;20416;-85
2021/08/04 06:44:03;;;;;;;51.07;31.13;;;15.70;84.20;;;;;;6217256;23;20430;-87
2021/08/04 06:46:42;;;;;;;45.50;23.20;;;15.70;84.40;;;;;;6227238;23;20450;-88
2021/08/04 06:49:43;;;;;;;48.37;25.77;;;15.70;82.00;;;;;;6227243;23;20400;-85
2021/08/04 06:52:17;;;;;;;46.07;26.43;;;15.70;82.10;;;;;;6226804;23;20514;-85
2021/08/04 06:54:44;;;;;;;47.40;23.17;;;15.80;82.20;;;;;;6226771;23;20501;-86
2021/08/04 06:57:31;;;;;;;43.80;20.93;;;15.90;80.50;;;;;;6227134;23;20420;-85
2021/08/04 06:59:59;;;;;;;44.13;18.83;;;16.30;76.50;;;;;;6205108;23;20489;-81
2021/08/04 07:03:28;;;;;;;42.50;18.70;;;16.70;73.30;;;;;;6215287;23;20398;-85
2021/08/04 07:05:54;;;;;;;48.70;19.87;;;16.80;67.20;;;;;;5966443;23;20420;-78
2021/08/04 07:09:25;;;;;;;;;;;;;;;;;;;;;
2021/08/04 07:18:40;;;;;;;50.80;17.87;;;17.60;61.00;;;;;;6031446;23;20453;-82
2021/08/04 07:21:56;;;;;;;54.27;19.33;;;17.80;58.10;;;;;;6194787;23;20424;-84
2021/08/04 07:24:23;;;;;;;52.60;19.90;;;17.70;56.90;;;;;;6160666;23;20927;-77
2021/08/04 07:26:50;;;;;;;59.83;19.23;;;17.90;55.90;;;;;;6186317;23;20877;-79
2021/08/04 07:29:17;;;;;;;52.33;18.93;;;18.20;54.30;;;;;;6186840;23;20404;-79
2021/08/04 07:31:43;;;;;;;51.17;19.47;;;18.40;51.70;;;;;;6185048;23;20449;-76
2021/08/04 07:34:14;;;;;;;44.20;16.63;;;18.60;53.20;;;;;;6186545;23;20412;-77
2021/08/04 07:36:41;;;;;;;51.67;17.10;;;18.30;46.90;;;;;;6186916;23;20408;-77
2021/08/04 07:39:08;;;;;;;43.87;15.93;;;18.40;47.70;;;;;;6186736;23;20401;-75
2021/08/04 07:41:34;;;;;;;46.07;15.90;;;18.60;46.50;;;;;;6186449;23;20406;-79
2021/08/04 07:44:01;;;;;;;43.20;16.00;;;18.80;45.40;;;;;;6186777;23;20726;-78
2021/08/04 07:46:28;;;;;;;43.63;17.07;;;19.00;44.40;;;;;;6187166;23;20408;-84
2021/08/04 07:48:55;;;;;;;44.87;16.10;;;18.90;44.60;;;;;;6187772;23;20403;-78
2021/08/04 07:51:23;;;;;;;47.37;17.00;;;18.60;43.00;;;;;;6186140;23;20936;-76
2021/08/04 07:53:49;;;;;;;42.47;15.70;;;19.00;44.00;;;;;;6186647;23;20401;-76
2021/08/04 07:56:19;;;;;;;45.80;14.90;;;19.10;43.50;;;;;;6186582;23;20407;-77
2021/08/04 07:58:46;;;;;;;44.03;15.00;;;19.20;43.60;;;;;;6186466;23;20401;-76
2021/08/04 08:01:13;;;;;;;42.60;14.37;;;19.50;43.90;;;;;;6184307;23;20932;-78
2021/08/04 08:03:39;;;;;;;38.63;12.30;;;19.60;40.20;;;;;;6190078;23;20401;-77
2021/08/04 08:06:06;;;;;;;39.70;13.13;;;19.50;37.50;;;;;;6226164;23;20911;-80
2021/08/04 08:08:34;;;;;;;35.73;12.50;;;19.30;34.70;;;;;;6215823;23;20404;-77
2021/08/04 08:11:03;;;;;;;43.77;14.37;;;19.20;39.30;;;;;;6215746;23;20903;-79
2021/08/04 08:13:31;;;;;;;43.00;12.50;;;19.70;39.00;;;;;;6216239;23;20427;-77
2021/08/04 08:15:58;;;;;;;46.77;14.27;;;20.30;35.60;;;;;;6214258;23;20919;-77
2021/08/04 08:18:24;;;;;;;47.80;13.60;;;20.70;34.60;;;;;;6225625;23;20434;-76
2021/08/04 08:20:52;;;;;;;45.20;14.40;;;20.70;27.60;;;;;;6216380;23;20404;-78
2021/08/04 08:23:18;;;;;;;49.60;13.30;;;20.60;27.40;;;;;;6216241;23;20401;-77
2021/08/04 08:25:47;;;;;;;49.87;14.00;;;20.70;27.50;;;;;;6216116;23;20424;-77
2021/08/04 08:28:15;;;;;;;52.70;15.63;;;20.70;27.50;;;;;;6216311;23;20483;-77
2021/08/04 08:30:42;;;;;;;54.60;14.47;;;21.10;30.00;;;;;;6214335;23;20400;-79
2021/08/04 08:33:10;;;;;;;54.63;16.87;;;21.50;26.20;;;;;;6216106;23;20436;-80
2021/08/04 08:35:36;;;;;;;59.03;20.03;;;21.80;24.90;;;;;;6215767;23;20947;-79
2021/08/04 08:38:03;;;;;;;61.20;16.27;;;22.20;24.80;;;;;;6216182;23;20404;-79
2021/08/04 08:40:30;;;;;;;63.07;17.30;;;22.60;21.60;;;;;;6215635;23;20898;-84
2021/08/04 08:43:00;;;;;;;59.07;18.50;;;22.90;20.60;;;;;;6215959;23;20406;-78
2021/08/04 08:45:26;;;;;;;66.93;18.47;;;23.10;21.90;;;;;;6215127;23;20698;-78
2021/08/04 08:47:54;;;;;;;60.90;17.60;;;23.30;18.50;;;;;;6215908;23;20868;-81
2021/08/04 08:50:25;;;;;;;57.93;20.80;;;23.40;18.90;;;;;;6215747;23;20400;-80
2021/08/04 10:22:52;;;;;;;50.55;14.32;;;26.80;3.20;;;;;;6190501;23;20511;-81
2021/08/04 10:28:09;;;;;;;48.45;13.70;;;25.60;1.90;;;;;;6209792;23;20417;-81
2021/08/04 10:30:38;;;;;;;49.27;11.80;;;25.10;2.80;;;;;;6217025;23;20189;-79
2021/08/04 10:33:42;;;;;;;45.33;11.03;;;25.00;3.10;;;;;;6217004;23;20438;-87
2021/08/04 10:51:28;;;;;;;41.07;11.57;;;24.90;5.40;;;;;;5855420;24;20423;-82
2021/08/04 10:54:17;;;;;;;43.50;12.80;;;24.40;6.10;;;;;;6039168;23;20461;-83
2021/08/04 10:57:09;;;;;;;44.37;12.80;;;24.10;7.10;;;;;;6218202;23;20451;-77
2021/08/04 10:59:37;;;;;;;42.60;11.47;;;24.00;5.90;;;;;;6219137;23;20470;-84
2021/08/04 11:02:41;;;;;;;41.63;12.03;;;24.10;7.50;;;;;;6222168;23;20460;-82
2021/08/04 11:05:08;;;;;;;46.47;14.13;;;23.90;8.90;;;;;;6220326;23;20402;-79
2021/08/04 11:07:36;;;;;;;42.40;12.97;;;23.40;7.00;;;;;;6219178;23;20396;-81
2021/08/04 11:10:07;;;;;;;46.67;16.37;;;23.30;9.50;;;;;;6219515;23;20396;-86
2021/08/04 11:12:45;;;;;;;42.53;13.47;;;23.40;11.80;;;;;;6218106;23;20453;-89
2021/08/04 11:15:24;;;;;;;43.97;14.33;;;23.30;9.10;;;;;;6218589;23;20407;-84
2021/08/04 11:18:04;;;;;;;41.80;14.33;;;23.20;11.00;;;;;;6217150;23;20495;-82
2021/08/04 11:20:31;;;;;;;44.63;13.73;;;23.00;14.40;;;;;;6216788;23;20475;-83
2021/08/04 11:23:00;;;;;;;42.43;12.73;;;22.90;11.20;;;;;;6217036;23;20436;-89
2021/08/04 11:25:42;;;;;;;43.07;13.53;;;22.90;13.30;;;;;;6219996;23;20483;-84
2021/08/04 11:28:14;;;;;;;40.00;13.50;;;22.90;14.30;;;;;;6221139;23;20396;-83
2021/08/04 11:30:43;;;;;;;38.57;12.90;;;23.10;14.50;;;;;;6219916;23;20495;-81
2021/08/04 11:33:33;;;;;;;41.83;13.97;;;23.00;14.40;;;;;;6217084;23;20432;-80
2021/08/04 11:36:23;;;;;;;49.17;12.60;;;23.00;13.00;;;;;;6215004;23;20484;-85
2021/08/04 11:39:04;;;;;;;41.13;11.70;;;23.10;12.80;;;;;;6216968;23;20486;-81
2021/08/04 11:41:45;;;;;;;41.77;13.40;;;23.10;13.00;;;;;;6216892;23;20400;-77
2021/08/04 11:44:23;;;;;;;40.00;11.77;;;23.40;11.60;;;;;;6218384;23;20400;-84
2021/08/04 11:46:52;;;;;;;47.00;12.27;;;23.70;14.90;;;;;;6216923;23;20766;-85
2021/08/04 11:49:20;;;;;;;41.20;12.63;;;23.80;12.60;;;;;;6216986;23;20400;-79
2021/08/04 11:51:52;;;;;;;44.60;14.30;;;23.80;10.40;;;;;;6215365;23;20475;-88
2021/08/04 11:54:33;;;;;;;40.80;12.40;;;23.90;10.50;;;;;;6216968;23;20727;-78
2021/08/04 11:57:00;;;;;;;45.87;15.60;;;23.90;10.80;;;;;;6216768;23;20720;-79
2021/08/04 11:59:27;;;;;;;44.80;13.70;;;24.10;12.70;;;;;;6216132;23;20396;-81
2021/08/04 12:01:55;;;;;;;41.97;12.80;;;24.30;8.60;;;;;;6216213;23;20404;-77
2021/08/04 12:04:23;;;;;;;44.63;14.10;;;24.30;7.70;;;;;;6216061;23;20447;-82
2021/08/04 12:06:58;;;;;;;44.77;13.40;;;24.10;7.50;;;;;;6214645;23;20396;-82
2021/08/04 14:17:00;;;;;;;47.10;10.73;;;29.10;1.00;;;;;;6180772;23;20190;-79
2021/08/04 14:19:27;;;;;;;48.50;11.40;;;29.60;1.00;;;;;;6185269;23;20437;-79
2021/08/04 14:21:56;;;;;;;46.63;10.60;;;30.40;1.00;;;;;;6183365;23;20460;-79
2021/08/04 14:24:22;;;;;;;51.07;9.43;;;31.00;1.00;;;;;;6184986;23;20428;-79
2021/08/04 14:26:49;;;;;;;45.57;9.97;;;31.20;1.00;;;;;;6185406;23;20397;-78
2021/08/04 14:29:16;;;;;;;56.70;10.03;;;31.90;1.00;;;;;;6185236;23;20799;-79
2021/08/04 14:31:44;;;;;;;49.20;8.33;;;31.10;1.00;;;;;;6195364;23;20405;-78
2021/08/04 14:34:12;;;;;;;49.30;9.03;;;30.90;1.00;;;;;;6194748;23;20441;-78
2021/08/04 14:36:39;;;;;;;49.33;8.60;;;30.40;1.00;;;;;;6183345;23;20405;-79
2021/08/04 14:39:06;;;;;;;50.70;9.30;;;29.70;1.00;;;;;;6185229;23;20495;-78
2021/08/04 14:41:33;;;;;;;50.30;8.60;;;28.60;1.00;;;;;;6185235;23;20409;-79
2021/08/04 14:44:00;;;;;;;51.57;7.80;;;27.80;1.00;;;;;;6194818;23;20500;-83
2021/08/04 14:46:27;;;;;;;48.10;7.10;;;26.90;1.00;;;;;;6194875;23;20412;-81
2021/08/04 14:48:54;;;;;;;46.50;7.50;;;26.30;1.00;;;;;;6194851;23;20499;-81
2021/08/04 14:51:23;;;;;;;50.07;8.37;;;26.00;1.00;;;;;;6193251;23;20907;-81
2021/08/04 14:53:49;;;;;;;44.77;7.20;;;26.10;1.00;;;;;;6185039;23;20464;-80
2021/08/04 14:56:17;;;;;;;41.17;7.03;;;25.90;1.00;;;;;;6185005;23;20401;-81
2021/08/04 14:58:44;;;;;;;41.90;7.97;;;26.00;1.00;;;;;;6186672;23;20407;-80
2021/08/04 15:01:10;;;;;;;40.10;6.97;;;25.80;1.00;;;;;;6186911;23;20483;-82
2021/08/04 15:03:37;;;;;;;39.30;7.17;;;25.80;1.00;;;;;;6186852;23;20409;-82
2021/08/04 15:06:04;;;;;;;58.83;8.37;;;26.30;1.00;;;;;;6185054;23;20910;-81
2021/08/04 15:08:32;;;;;;;43.47;8.40;;;26.20;1.00;;;;;;6186929;23;20496;-80
2021/08/04 15:10:59;;;;;;;44.10;7.07;;;26.50;1.00;;;;;;6186710;23;20401;-81
2021/08/04 15:13:27;;;;;;;41.43;8.37;;;26.30;1.00;;;;;;6186260;23;20443;-84
2021/08/04 15:15:54;;;;;;;40.57;7.60;;;26.20;1.00;;;;;;6206249;23;20443;-83
2021/08/04 15:18:21;;;;;;;38.10;6.53;;;26.60;1.00;;;;;;6226807;23;20522;-83
2021/08/04 15:20:48;;;;;;;39.07;6.70;;;27.60;1.00;;;;;;6225085;23;20406;-84
2021/08/04 15:23:15;;;;;;;38.17;6.03;;;28.60;1.00;;;;;;6216466;23;20436;-85
2021/08/04 15:25:44;;;;;;;42.60;6.60;;;28.40;1.00;;;;;;6226505;23;20396;-84
2021/08/04 15:28:11;;;;;;;42.40;6.70;;;28.50;1.00;;;;;;6226063;23;20427;-84
2021/08/04 15:30:38;;;;;;;43.10;5.67;;;27.60;1.00;;;;;;6216594;23;20459;-85
2021/08/04 15:33:05;;;;;;;45.10;7.27;;;27.50;1.00;;;;;;6226667;23;20447;-84
2021/08/04 15:35:34;;;;;;;47.47;6.90;;;26.70;1.00;;;;;;6225335;23;20511;-85
2021/08/04 15:38:01;;;;;;;42.50;5.93;;;26.60;1.00;;;;;;6216448;23;20408;-84
2021/08/04 15:40:28;;;;;;;40.57;5.90;;;26.40;1.00;;;;;;6216248;23;20400;-87
2021/08/04 15:42:57;;;;;;;42.80;6.63;;;26.90;1.00;;;;;;6216433;23;20404;-85
2021/08/04 15:45:26;;;;;;;42.47;6.70;;;27.80;1.00;;;;;;6216432;23;20400;-84
2021/08/04 15:47:53;;;;;;;40.57;6.23;;;28.40;1.00;;;;;;6216332;23;20401;-84
2021/08/04 15:50:20;;;;;;;41.87;7.47;;;28.90;1.00;;;;;;6215423;23;20397;-84
2021/08/04 15:52:49;;;;;;;42.93;6.77;;;28.90;1.00;;;;;;6216502;23;20478;-85
2021/08/04 15:55:16;;;;;;;43.70;7.47;;;28.90;1.00;;;;;;6226340;23;20393;-85
2021/08/04 15:57:50;;;;;;;45.63;7.50;;;29.00;1.00;;;;;;6226088;23;20416;-85
2021/08/04 16:00:19;;;;;;;47.37;7.60;;;29.50;1.00;;;;;;6216344;23;20400;-86
2021/08/04 16:02:45;;;;;;;47.07;7.43;;;28.60;1.00;;;;;;6226407;23;20408;-86
2021/08/04 16:05:15;;;;;;;47.53;7.70;;;28.00;1.00;;;;;;6215283;23;20793;-85
2021/08/04 16:07:42;;;;;;;47.93;6.97;;;26.90;1.00;;;;;;6216177;23;20397;-84
2021/08/04 16:57:36;;;;;;;42.43;7.97;;;23.90;1.00;;;;;;6218487;22;20450;-78
2021/08/04 17:00:04;;;;;;;40.40;7.87;;;23.70;1.00;;;;;;6256437;23;20482;-80
2021/08/04 17:02:32;;;;;;;43.20;7.17;;;23.30;1.90;;;;;;6246099;23;20395;-81
2021/08/04 17:04:59;;;;;;;38.37;6.60;;;23.20;3.70;;;;;;6254685;23;20462;-80
2021/08/04 17:07:26;;;;;;;39.23;6.73;;;23.00;5.20;;;;;;6255817;23;20909;-81
2021/08/04 17:09:53;;;;;;;43.87;6.60;;;22.80;4.80;;;;;;6245538;23;20486;-81
2021/08/04 17:12:37;;;;;;;36.47;6.73;;;22.60;6.40;;;;;;6245625;23;20949;-86
2021/08/04 17:15:33;;;;;;;37.20;6.80;;;22.40;6.30;;;;;;6245859;23;20430;-86
2021/08/04 17:21:33;;;;;;;40.37;6.10;;;22.00;6.80;;;;;;6159315;23;20418;-86
2021/08/04 17:24:00;;;;;;;35.10;6.83;;;21.80;8.40;;;;;;6240985;23;20407;-84
2021/08/04 17:50:50;;;;;;;35.20;8.50;;;20.50;16.30;;;;;;5780970;24;20436;-83
2021/08/04 17:53:17;;;;;;;36.67;10.90;;;20.30;18.00;;;;;;5904344;24;20777;-82
2021/08/04 17:55:44;;;;;;;34.17;9.00;;;20.30;18.30;;;;;;6105477;23;20454;-83
2021/08/04 17:58:11;;;;;;;31.97;7.90;;;20.20;17.70;;;;;;6223680;23;20502;-84
2021/08/04 18:00:37;;;;;;;35.23;8.90;;;20.10;19.10;;;;;;6213875;23;20463;-83
2021/08/04 18:03:04;;;;;;;36.30;7.50;;;20.10;22.50;;;;;;6213731;23;20490;-84
2021/08/04 18:05:32;;;;;;;38.67;8.03;;;20.00;22.10;;;;;;6212327;23;20400;-83
2021/08/04 18:08:00;;;;;;;37.67;10.27;;;20.00;22.20;;;;;;6213703;23;20400;-83
2021/08/04 18:10:29;;;;;;;36.43;10.97;;;19.80;22.30;;;;;;6213268;23;20883;-84
2021/08/04 18:12:56;;;;;;;38.67;12.10;;;19.70;23.80;;;;;;6213086;23;20407;-83
2021/08/04 18:15:24;;;;;;;39.20;13.90;;;19.60;25.10;;;;;;6223818;23;20400;-84
2021/08/04 18:17:51;;;;;;;40.07;13.60;;;19.50;25.40;;;;;;6223344;23;20892;-83
2021/08/04 18:20:19;;;;;;;42.57;15.27;;;19.40;26.30;;;;;;6215986;23;20451;-84
2021/08/04 19:11:15;;;;;;;45.20;16.30;;;18.20;33.60;;;;;;5884689;24;20436;-84
2021/08/04 19:28:12;;;;;;;38.60;15.80;;;18.00;41.90;;;;;;5949668;24;20803;-84
